sensor_id;sensor_type;location;lat;lon;timestamp;temperature;humidity
17236;DHT22;8734;59.272;17.780;2023-02-23T00:02:06;-0.10;99.90
17236;DHT22;8734;59.272;17.780;2023-02-23T00:04:35;-0.10;99.90
17236;DHT22;8734;59.272;17.780;2023-02-23T00:07:04;0.00;99.90
17236;DHT22;8734;59.272;17.780;2023-02-23T00:09:33;0.00;99.90
17236;DHT22;8734;59.272;17.780;2023-02-23T00:12:05;0.00;99.90
17236;DHT22;8734;59.272;17.780;2023-02-23T00:14:35;0.00;99.90
17236;DHT22;8734;59.272;17.780;2023-02-23T00:17:05;0.00;99.90
17236;DHT22;8734;59.272;17.780;2023-02-23T00:19:40;0.00;99.90
17236;DHT22;8734;59.272;17.780;2023-02-23T00:22:09;0.10;99.90
17236;DHT22;8734;59.272;17.780;2023-02-23T00:24:38;0.10;99.90
17236;DHT22;8734;59.272;17.780;2023-02-23T00:27:10;0.20;99.90
17236;DHT22;8734;59.272;17.780;2023-02-23T00:29:43;0.20;99.90
17236;DHT22;8734;59.272;17.780;2023-02-23T00:32:16;0.30;99.90
17236;DHT22;8734;59.272;17.780;2023-02-23T00:34:46;0.30;99.90
17236;DHT22;8734;59.272;17.780;2023-02-23T00:37:15;0.40;99.90
17236;DHT22;8734;59.272;17.780;2023-02-23T00:39:44;0.40;99.90
17236;DHT22;8734;59.272;17.780;2023-02-23T00:42:14;0.40;99.90
17236;DHT22;8734;59.272;17.780;2023-02-23T00:44:42;0.40;99.90
17236;DHT22;8734;59.272;17.780;2023-02-23T00:47:13;0.50;99.90
17236;DHT22;8734;59.272;17.780;2023-02-23T00:49:41;0.50;99.90
17236;DHT22;8734;59.272;17.780;2023-02-23T00:52:11;0.50;99.90
17236;DHT22;8734;59.272;17.780;2023-02-23T00:54:40;0.50;99.90
17236;DHT22;8734;59.272;17.780;2023-02-23T00:57:09;0.50;99.90
17236;DHT22;8734;59.272;17.780;2023-02-23T00:59:38;0.50;99.90
17236;DHT22;8734;59.272;17.780;2023-02-23T01:02:07;0.50;99.90
17236;DHT22;8734;59.272;17.780;2023-02-23T01:04:35;0.40;99.90
17236;DHT22;8734;59.272;17.780;2023-02-23T01:07:04;0.40;99.90
17236;DHT22;8734;59.272;17.780;2023-02-23T01:09:32;0.40;99.90
17236;DHT22;8734;59.272;17.780;2023-02-23T01:12:01;0.40;99.90
17236;DHT22;8734;59.272;17.780;2023-02-23T01:14:34;0.40;99.90
17236;DHT22;8734;59.272;17.780;2023-02-23T01:17:05;0.40;99.90
17236;DHT22;8734;59.272;17.780;2023-02-23T01:19:33;0.40;99.90
17236;DHT22;8734;59.272;17.780;2023-02-23T01:22:02;0.40;99.90
17236;DHT22;8734;59.272;17.780;2023-02-23T01:24:30;0.40;99.90
17236;DHT22;8734;59.272;17.780;2023-02-23T01:26:58;0.30;99.90
17236;DHT22;8734;59.272;17.780;2023-02-23T01:29:27;0.30;99.90
17236;DHT22;8734;59.272;17.780;2023-02-23T01:31:55;0.40;99.90
17236;DHT22;8734;59.272;17.780;2023-02-23T01:34:25;0.30;99.90
17236;DHT22;8734;59.272;17.780;2023-02-23T01:36:54;0.40;99.90
17236;DHT22;8734;59.272;17.780;2023-02-23T01:39:22;0.40;99.90
17236;DHT22;8734;59.272;17.780;2023-02-23T01:41:50;0.40;99.90
17236;DHT22;8734;59.272;17.780;2023-02-23T01:47:25;0.40;99.90
17236;DHT22;8734;59.272;17.780;2023-02-23T01:49:55;0.40;99.90
17236;DHT22;8734;59.272;17.780;2023-02-23T01:52:23;0.40;99.90
17236;DHT22;8734;59.272;17.780;2023-02-23T01:54:54;0.30;99.90
17236;DHT22;8734;59.272;17.780;2023-02-23T01:57:23;0.30;99.90
17236;DHT22;8734;59.272;17.780;2023-02-23T01:59:53;0.40;99.90
17236;DHT22;8734;59.272;17.780;2023-02-23T02:02:24;0.30;99.90
17236;DHT22;8734;59.272;17.780;2023-02-23T02:05:02;0.30;99.90
17236;DHT22;8734;59.272;17.780;2023-02-23T02:07:34;0.30;99.90
17236;DHT22;8734;59.272;17.780;2023-02-23T02:10:06;0.20;99.90
17236;DHT22;8734;59.272;17.780;2023-02-23T02:12:55;0.20;99.90
17236;DHT22;8734;59.272;17.780;2023-02-23T02:15:28;0.20;99.90
17236;DHT22;8734;59.272;17.780;2023-02-23T02:18:08;0.20;99.90
17236;DHT22;8734;59.272;17.780;2023-02-23T02:26:50;0.20;99.90
17236;DHT22;8734;59.272;17.780;2023-02-23T02:32:40;0.10;99.90
17236;DHT22;8734;59.272;17.780;2023-02-23T02:35:44;0.10;99.90
17236;DHT22;8734;59.272;17.780;2023-02-23T02:38:32;0.10;99.90
17236;DHT22;8734;59.272;17.780;2023-02-23T02:41:05;0.10;99.90
17236;DHT22;8734;59.272;17.780;2023-02-23T02:43:42;0.10;99.90
17236;DHT22;8734;59.272;17.780;2023-02-23T02:46:21;0.10;99.90
17236;DHT22;8734;59.272;17.780;2023-02-23T02:48:58;0.10;99.90
17236;DHT22;8734;59.272;17.780;2023-02-23T02:51:35;0.10;99.90
17236;DHT22;8734;59.272;17.780;2023-02-23T02:54:14;0.10;99.90
17236;DHT22;8734;59.272;17.780;2023-02-23T02:56:48;0.00;99.90
17236;DHT22;8734;59.272;17.780;2023-02-23T02:59:18;0.10;99.90
17236;DHT22;8734;59.272;17.780;2023-02-23T03:02:05;0.10;99.90
17236;DHT22;8734;59.272;17.780;2023-02-23T03:04:51;0.10;99.90
17236;DHT22;8734;59.272;17.780;2023-02-23T03:07:41;0.10;99.90
17236;DHT22;8734;59.272;17.780;2023-02-23T03:10:35;0.10;99.90
17236;DHT22;8734;59.272;17.780;2023-02-23T03:13:33;0.10;99.90
17236;DHT22;8734;59.272;17.780;2023-02-23T03:16:24;0.10;99.90
17236;DHT22;8734;59.272;17.780;2023-02-23T03:19:19;0.10;99.90
17236;DHT22;8734;59.272;17.780;2023-02-23T03:22:15;0.10;99.90
17236;DHT22;8734;59.272;17.780;2023-02-23T03:25:08;0.10;99.90
17236;DHT22;8734;59.272;17.780;2023-02-23T03:28:01;0.10;99.90
17236;DHT22;8734;59.272;17.780;2023-02-23T03:30:57;0.10;99.90
17236;DHT22;8734;59.272;17.780;2023-02-23T03:33:50;0.20;99.90
17236;DHT22;8734;59.272;17.780;2023-02-23T03:36:47;0.20;99.90
17236;DHT22;8734;59.272;17.780;2023-02-23T03:39:37;0.20;99.90
17236;DHT22;8734;59.272;17.780;2023-02-23T03:42:29;0.20;99.90
17236;DHT22;8734;59.272;17.780;2023-02-23T03:45:20;0.20;99.90
17236;DHT22;8734;59.272;17.780;2023-02-23T03:48:09;0.20;99.90
17236;DHT22;8734;59.272;17.780;2023-02-23T03:50:59;0.20;99.90
17236;DHT22;8734;59.272;17.780;2023-02-23T03:53:50;0.20;99.90
17236;DHT22;8734;59.272;17.780;2023-02-23T03:56:41;0.20;99.90
17236;DHT22;8734;59.272;17.780;2023-02-23T03:59:30;0.20;99.90
17236;DHT22;8734;59.272;17.780;2023-02-23T04:02:19;0.20;99.90
17236;DHT22;8734;59.272;17.780;2023-02-23T04:05:09;0.20;99.90
17236;DHT22;8734;59.272;17.780;2023-02-23T04:07:56;0.30;99.90
17236;DHT22;8734;59.272;17.780;2023-02-23T04:10:47;0.20;99.90
17236;DHT22;8734;59.272;17.780;2023-02-23T04:13:36;0.20;99.90
17236;DHT22;8734;59.272;17.780;2023-02-23T04:16:07;0.30;99.90
17236;DHT22;8734;59.272;17.780;2023-02-23T04:18:37;0.30;99.90
17236;DHT22;8734;59.272;17.780;2023-02-23T04:21:06;0.30;99.90
17236;DHT22;8734;59.272;17.780;2023-02-23T04:23:36;0.30;99.90
17236;DHT22;8734;59.272;17.780;2023-02-23T04:26:06;0.30;99.90
17236;DHT22;8734;59.272;17.780;2023-02-23T04:28:34;0.30;99.90
17236;DHT22;8734;59.272;17.780;2023-02-23T04:31:04;0.30;99.90
17236;DHT22;8734;59.272;17.780;2023-02-23T04:33:32;0.20;99.90
17236;DHT22;8734;59.272;17.780;2023-02-23T04:36:02;0.20;99.90
17236;DHT22;8734;59.272;17.780;2023-02-23T04:38:30;0.20;99.90
17236;DHT22;8734;59.272;17.780;2023-02-23T04:40:58;0.20;99.90
17236;DHT22;8734;59.272;17.780;2023-02-23T04:43:26;0.20;99.90
17236;DHT22;8734;59.272;17.780;2023-02-23T04:45:55;0.20;99.90
17236;DHT22;8734;59.272;17.780;2023-02-23T04:48:24;0.20;99.90
17236;DHT22;8734;59.272;17.780;2023-02-23T04:50:52;0.20;99.90
17236;DHT22;8734;59.272;17.780;2023-02-23T04:53:22;0.20;99.90
17236;DHT22;8734;59.272;17.780;2023-02-23T04:55:52;0.20;99.90
17236;DHT22;8734;59.272;17.780;2023-02-23T04:58:20;0.20;99.90
17236;DHT22;8734;59.272;17.780;2023-02-23T05:00:48;0.10;99.90
17236;DHT22;8734;59.272;17.780;2023-02-23T05:03:17;0.10;99.90
17236;DHT22;8734;59.272;17.780;2023-02-23T05:05:45;0.10;99.90
17236;DHT22;8734;59.272;17.780;2023-02-23T05:08:13;0.10;99.90
17236;DHT22;8734;59.272;17.780;2023-02-23T05:10:45;0.10;99.90
17236;DHT22;8734;59.272;17.780;2023-02-23T05:13:13;0.10;99.90
17236;DHT22;8734;59.272;17.780;2023-02-23T05:15:42;0.10;99.90
17236;DHT22;8734;59.272;17.780;2023-02-23T05:18:11;0.10;99.90
17236;DHT22;8734;59.272;17.780;2023-02-23T05:20:41;0.10;99.90
17236;DHT22;8734;59.272;17.780;2023-02-23T05:23:12;0.10;99.90
17236;DHT22;8734;59.272;17.780;2023-02-23T05:25:40;0.10;99.90
17236;DHT22;8734;59.272;17.780;2023-02-23T05:28:10;0.10;99.90
17236;DHT22;8734;59.272;17.780;2023-02-23T05:30:38;0.20;99.90
17236;DHT22;8734;59.272;17.780;2023-02-23T05:33:06;0.10;99.90
17236;DHT22;8734;59.272;17.780;2023-02-23T05:35:37;0.20;99.90
17236;DHT22;8734;59.272;17.780;2023-02-23T05:38:06;0.10;99.90
17236;DHT22;8734;59.272;17.780;2023-02-23T05:40:35;0.10;99.90
17236;DHT22;8734;59.272;17.780;2023-02-23T05:43:03;0.10;99.90
17236;DHT22;8734;59.272;17.780;2023-02-23T05:45:33;0.10;99.90
17236;DHT22;8734;59.272;17.780;2023-02-23T05:48:02;0.20;99.90
17236;DHT22;8734;59.272;17.780;2023-02-23T05:50:30;0.10;99.90
17236;DHT22;8734;59.272;17.780;2023-02-23T05:52:59;0.20;99.90
17236;DHT22;8734;59.272;17.780;2023-02-23T05:55:27;0.20;99.90
17236;DHT22;8734;59.272;17.780;2023-02-23T05:57:55;0.20;99.90
17236;DHT22;8734;59.272;17.780;2023-02-23T06:00:24;0.20;99.90
17236;DHT22;8734;59.272;17.780;2023-02-23T06:02:53;0.20;99.90
17236;DHT22;8734;59.272;17.780;2023-02-23T06:05:22;0.20;99.90
17236;DHT22;8734;59.272;17.780;2023-02-23T06:07:51;0.20;99.90
17236;DHT22;8734;59.272;17.780;2023-02-23T06:10:19;0.20;99.90
17236;DHT22;8734;59.272;17.780;2023-02-23T06:12:47;0.20;99.90
17236;DHT22;8734;59.272;17.780;2023-02-23T06:15:17;0.20;99.90
17236;DHT22;8734;59.272;17.780;2023-02-23T06:17:45;0.20;99.90
17236;DHT22;8734;59.272;17.780;2023-02-23T06:20:15;0.20;99.90
17236;DHT22;8734;59.272;17.780;2023-02-23T06:22:43;0.20;99.90
17236;DHT22;8734;59.272;17.780;2023-02-23T06:25:12;0.20;99.90
17236;DHT22;8734;59.272;17.780;2023-02-23T06:27:40;0.20;99.90
17236;DHT22;8734;59.272;17.780;2023-02-23T06:30:11;0.20;99.90
17236;DHT22;8734;59.272;17.780;2023-02-23T06:32:40;0.30;99.90
17236;DHT22;8734;59.272;17.780;2023-02-23T06:35:09;0.30;99.90
17236;DHT22;8734;59.272;17.780;2023-02-23T06:37:39;0.30;99.90
17236;DHT22;8734;59.272;17.780;2023-02-23T06:40:08;0.30;99.90
17236;DHT22;8734;59.272;17.780;2023-02-23T06:42:37;0.30;99.90
17236;DHT22;8734;59.272;17.780;2023-02-23T06:45:05;0.30;99.90
17236;DHT22;8734;59.272;17.780;2023-02-23T06:47:34;0.30;99.90
17236;DHT22;8734;59.272;17.780;2023-02-23T06:50:02;0.40;99.90
17236;DHT22;8734;59.272;17.780;2023-02-23T06:52:31;0.40;99.90
17236;DHT22;8734;59.272;17.780;2023-02-23T06:55:01;0.40;99.90
17236;DHT22;8734;59.272;17.780;2023-02-23T06:57:29;0.40;99.90
17236;DHT22;8734;59.272;17.780;2023-02-23T06:59:58;0.40;99.90
17236;DHT22;8734;59.272;17.780;2023-02-23T07:02:27;0.40;99.90
17236;DHT22;8734;59.272;17.780;2023-02-23T07:04:55;0.40;99.90
17236;DHT22;8734;59.272;17.780;2023-02-23T07:07:25;0.50;99.90
17236;DHT22;8734;59.272;17.780;2023-02-23T07:09:53;0.50;99.90
17236;DHT22;8734;59.272;17.780;2023-02-23T07:12:22;0.50;99.90
17236;DHT22;8734;59.272;17.780;2023-02-23T07:14:51;0.60;99.90
17236;DHT22;8734;59.272;17.780;2023-02-23T07:17:19;0.60;99.90
17236;DHT22;8734;59.272;17.780;2023-02-23T07:19:47;0.60;99.90
17236;DHT22;8734;59.272;17.780;2023-02-23T07:22:16;0.60;99.90
17236;DHT22;8734;59.272;17.780;2023-02-23T07:24:44;0.60;99.90
17236;DHT22;8734;59.272;17.780;2023-02-23T07:27:14;0.70;99.90
17236;DHT22;8734;59.272;17.780;2023-02-23T07:29:44;0.70;99.90
17236;DHT22;8734;59.272;17.780;2023-02-23T07:32:12;0.80;99.90
17236;DHT22;8734;59.272;17.780;2023-02-23T07:34:40;0.80;99.90
17236;DHT22;8734;59.272;17.780;2023-02-23T07:37:09;0.80;99.90
17236;DHT22;8734;59.272;17.780;2023-02-23T07:39:37;0.90;99.90
17236;DHT22;8734;59.272;17.780;2023-02-23T07:42:05;0.90;99.90
17236;DHT22;8734;59.272;17.780;2023-02-23T07:44:35;0.90;99.90
17236;DHT22;8734;59.272;17.780;2023-02-23T07:47:05;0.90;99.90
17236;DHT22;8734;59.272;17.780;2023-02-23T07:49:33;1.00;99.90
17236;DHT22;8734;59.272;17.780;2023-02-23T07:52:02;1.00;99.90
17236;DHT22;8734;59.272;17.780;2023-02-23T07:54:31;1.00;99.90
17236;DHT22;8734;59.272;17.780;2023-02-23T07:56:59;1.10;99.90
17236;DHT22;8734;59.272;17.780;2023-02-23T07:59:28;1.10;99.90
17236;DHT22;8734;59.272;17.780;2023-02-23T08:01:57;1.20;99.90
17236;DHT22;8734;59.272;17.780;2023-02-23T08:04:28;1.20;99.90
17236;DHT22;8734;59.272;17.780;2023-02-23T08:06:56;1.20;99.90
17236;DHT22;8734;59.272;17.780;2023-02-23T08:09:25;1.20;99.90
17236;DHT22;8734;59.272;17.780;2023-02-23T08:11:53;1.20;99.90
17236;DHT22;8734;59.272;17.780;2023-02-23T08:14:22;1.30;99.90
17236;DHT22;8734;59.272;17.780;2023-02-23T08:16:51;1.30;99.90
17236;DHT22;8734;59.272;17.780;2023-02-23T08:19:19;1.30;99.90
17236;DHT22;8734;59.272;17.780;2023-02-23T08:21:50;1.30;99.90
17236;DHT22;8734;59.272;17.780;2023-02-23T08:24:19;1.30;99.90
17236;DHT22;8734;59.272;17.780;2023-02-23T08:26:47;1.40;99.90
17236;DHT22;8734;59.272;17.780;2023-02-23T08:29:15;1.40;99.90
17236;DHT22;8734;59.272;17.780;2023-02-23T08:31:44;1.40;99.90
17236;DHT22;8734;59.272;17.780;2023-02-23T08:34:12;1.40;99.90
17236;DHT22;8734;59.272;17.780;2023-02-23T08:36:41;1.50;99.90
17236;DHT22;8734;59.272;17.780;2023-02-23T08:39:14;1.50;99.90
17236;DHT22;8734;59.272;17.780;2023-02-23T08:41:42;1.60;99.90
17236;DHT22;8734;59.272;17.780;2023-02-23T08:44:10;1.70;99.90
17236;DHT22;8734;59.272;17.780;2023-02-23T08:46:39;1.70;99.90
17236;DHT22;8734;59.272;17.780;2023-02-23T08:49:07;1.70;99.90
17236;DHT22;8734;59.272;17.780;2023-02-23T08:51:37;1.70;99.90
17236;DHT22;8734;59.272;17.780;2023-02-23T08:54:07;1.70;99.90
17236;DHT22;8734;59.272;17.780;2023-02-23T08:56:43;1.70;99.90
17236;DHT22;8734;59.272;17.780;2023-02-23T08:59:13;1.70;99.90
17236;DHT22;8734;59.272;17.780;2023-02-23T09:01:41;1.70;99.90
17236;DHT22;8734;59.272;17.780;2023-02-23T09:04:10;1.70;99.90
17236;DHT22;8734;59.272;17.780;2023-02-23T09:06:39;1.70;99.90
17236;DHT22;8734;59.272;17.780;2023-02-23T09:09:07;1.80;99.90
17236;DHT22;8734;59.272;17.780;2023-02-23T09:11:36;1.80;99.90
17236;DHT22;8734;59.272;17.780;2023-02-23T09:14:05;1.90;99.90
17236;DHT22;8734;59.272;17.780;2023-02-23T09:16:34;1.90;99.90
17236;DHT22;8734;59.272;17.780;2023-02-23T09:19:03;2.00;99.90
17236;DHT22;8734;59.272;17.780;2023-02-23T09:21:31;2.00;99.90
17236;DHT22;8734;59.272;17.780;2023-02-23T09:24:00;2.00;99.90
17236;DHT22;8734;59.272;17.780;2023-02-23T09:26:28;2.00;99.90
17236;DHT22;8734;59.272;17.780;2023-02-23T09:29:00;2.10;99.90
17236;DHT22;8734;59.272;17.780;2023-02-23T09:31:29;2.20;99.90
17236;DHT22;8734;59.272;17.780;2023-02-23T09:33:58;2.10;99.90
17236;DHT22;8734;59.272;17.780;2023-02-23T09:36:28;2.10;99.90
17236;DHT22;8734;59.272;17.780;2023-02-23T09:38:57;2.10;99.90
17236;DHT22;8734;59.272;17.780;2023-02-23T09:41:52;2.20;99.90
17236;DHT22;8734;59.272;17.780;2023-02-23T09:44:33;2.20;99.90
17236;DHT22;8734;59.272;17.780;2023-02-23T09:47:18;2.30;99.90
17236;DHT22;8734;59.272;17.780;2023-02-23T09:49:49;2.30;99.90
17236;DHT22;8734;59.272;17.780;2023-02-23T09:52:20;2.30;99.90
17236;DHT22;8734;59.272;17.780;2023-02-23T09:54:49;2.30;99.90
17236;DHT22;8734;59.272;17.780;2023-02-23T09:57:21;2.40;99.90
17236;DHT22;8734;59.272;17.780;2023-02-23T09:59:51;2.50;99.90
17236;DHT22;8734;59.272;17.780;2023-02-23T10:02:24;2.70;99.90
17236;DHT22;8734;59.272;17.780;2023-02-23T10:05:00;2.80;99.90
17236;DHT22;8734;59.272;17.780;2023-02-23T10:07:35;2.90;99.90
17236;DHT22;8734;59.272;17.780;2023-02-23T10:10:15;2.90;99.90
17236;DHT22;8734;59.272;17.780;2023-02-23T10:12:53;2.90;99.90
17236;DHT22;8734;59.272;17.780;2023-02-23T10:15:30;2.80;99.90
17236;DHT22;8734;59.272;17.780;2023-02-23T10:18:11;2.60;99.90
17236;DHT22;8734;59.272;17.780;2023-02-23T10:20:47;2.60;99.90
17236;DHT22;8734;59.272;17.780;2023-02-23T10:23:22;2.60;99.90
17236;DHT22;8734;59.272;17.780;2023-02-23T10:25:57;2.60;99.90
17236;DHT22;8734;59.272;17.780;2023-02-23T10:28:27;2.60;99.90
17236;DHT22;8734;59.272;17.780;2023-02-23T10:31:02;2.60;99.90
17236;DHT22;8734;59.272;17.780;2023-02-23T10:33:40;2.50;99.90
17236;DHT22;8734;59.272;17.780;2023-02-23T10:36:15;2.50;99.90
17236;DHT22;8734;59.272;17.780;2023-02-23T10:38:45;2.50;99.90
17236;DHT22;8734;59.272;17.780;2023-02-23T10:41:14;2.50;99.90
17236;DHT22;8734;59.272;17.780;2023-02-23T10:43:42;2.40;99.90
17236;DHT22;8734;59.272;17.780;2023-02-23T10:46:16;2.30;99.90
17236;DHT22;8734;59.272;17.780;2023-02-23T10:48:50;2.50;99.90
17236;DHT22;8734;59.272;17.780;2023-02-23T10:51:26;2.50;99.90
17236;DHT22;8734;59.272;17.780;2023-02-23T10:53:55;2.50;99.90
17236;DHT22;8734;59.272;17.780;2023-02-23T10:56:42;2.50;99.90
17236;DHT22;8734;59.272;17.780;2023-02-23T10:59:18;2.40;99.90
17236;DHT22;8734;59.272;17.780;2023-02-23T11:01:47;2.40;99.90
17236;DHT22;8734;59.272;17.780;2023-02-23T11:04:31;2.50;99.90
17236;DHT22;8734;59.272;17.780;2023-02-23T11:07:12;2.50;99.90
17236;DHT22;8734;59.272;17.780;2023-02-23T11:09:42;2.50;99.90
17236;DHT22;8734;59.272;17.780;2023-02-23T11:12:19;2.50;99.90
17236;DHT22;8734;59.272;17.780;2023-02-23T11:14:50;2.50;99.90
17236;DHT22;8734;59.272;17.780;2023-02-23T11:17:27;2.40;99.90
17236;DHT22;8734;59.272;17.780;2023-02-23T11:20:00;2.30;99.90
17236;DHT22;8734;59.272;17.780;2023-02-23T11:22:31;2.30;99.90
17236;DHT22;8734;59.272;17.780;2023-02-23T11:25:03;2.30;99.90
17236;DHT22;8734;59.272;17.780;2023-02-23T11:27:45;2.40;99.90
17236;DHT22;8734;59.272;17.780;2023-02-23T11:30:20;2.50;99.90
17236;DHT22;8734;59.272;17.780;2023-02-23T11:32:51;2.60;99.90
17236;DHT22;8734;59.272;17.780;2023-02-23T11:35:29;2.60;99.90
17236;DHT22;8734;59.272;17.780;2023-02-23T11:37:58;2.60;99.90
17236;DHT22;8734;59.272;17.780;2023-02-23T11:40:28;2.70;99.90
17236;DHT22;8734;59.272;17.780;2023-02-23T11:43:06;2.80;99.90
17236;DHT22;8734;59.272;17.780;2023-02-23T11:45:43;2.70;99.90
17236;DHT22;8734;59.272;17.780;2023-02-23T11:48:20;2.70;99.90
17236;DHT22;8734;59.272;17.780;2023-02-23T11:50:51;2.60;99.90
17236;DHT22;8734;59.272;17.780;2023-02-23T11:53:27;2.50;99.90
17236;DHT22;8734;59.272;17.780;2023-02-23T11:55:58;2.50;99.90
17236;DHT22;8734;59.272;17.780;2023-02-23T11:58:34;2.40;99.90
17236;DHT22;8734;59.272;17.780;2023-02-23T12:01:06;2.40;99.90
17236;DHT22;8734;59.272;17.780;2023-02-23T12:03:43;2.40;99.90
17236;DHT22;8734;59.272;17.780;2023-02-23T12:08:59;2.50;99.90
17236;DHT22;8734;59.272;17.780;2023-02-23T12:11:32;2.40;99.90
17236;DHT22;8734;59.272;17.780;2023-02-23T12:14:06;2.30;99.90
17236;DHT22;8734;59.272;17.780;2023-02-23T12:16:41;2.30;99.90
17236;DHT22;8734;59.272;17.780;2023-02-23T12:19:21;2.40;99.90
17236;DHT22;8734;59.272;17.780;2023-02-23T12:21:55;2.40;99.90
17236;DHT22;8734;59.272;17.780;2023-02-23T12:24:36;2.30;99.90
17236;DHT22;8734;59.272;17.780;2023-02-23T12:27:11;2.20;99.90
17236;DHT22;8734;59.272;17.780;2023-02-23T12:29:52;2.20;99.90
17236;DHT22;8734;59.272;17.780;2023-02-23T12:32:25;2.30;99.90
17236;DHT22;8734;59.272;17.780;2023-02-23T12:35:00;2.30;99.90
17236;DHT22;8734;59.272;17.780;2023-02-23T12:37:37;2.30;99.90
17236;DHT22;8734;59.272;17.780;2023-02-23T12:40:20;2.40;99.90
17236;DHT22;8734;59.272;17.780;2023-02-23T12:42:56;2.30;99.90
17236;DHT22;8734;59.272;17.780;2023-02-23T12:45:32;2.30;99.90
17236;DHT22;8734;59.272;17.780;2023-02-23T12:48:12;2.30;99.90
17236;DHT22;8734;59.272;17.780;2023-02-23T12:50:49;2.40;99.90
17236;DHT22;8734;59.272;17.780;2023-02-23T12:53:24;2.50;99.90
17236;DHT22;8734;59.272;17.780;2023-02-23T12:56:05;2.50;99.90
17236;DHT22;8734;59.272;17.780;2023-02-23T12:58:41;2.50;99.90
17236;DHT22;8734;59.272;17.780;2023-02-23T13:01:15;2.40;99.90
17236;DHT22;8734;59.272;17.780;2023-02-23T13:04:06;2.40;99.90
17236;DHT22;8734;59.272;17.780;2023-02-23T13:06:44;2.50;99.90
17236;DHT22;8734;59.272;17.780;2023-02-23T13:09:29;2.40;99.90
17236;DHT22;8734;59.272;17.780;2023-02-23T13:12:22;2.40;99.90
17236;DHT22;8734;59.272;17.780;2023-02-23T13:14:58;2.50;99.90
17236;DHT22;8734;59.272;17.780;2023-02-23T13:17:36;2.60;99.90
17236;DHT22;8734;59.272;17.780;2023-02-23T13:20:14;2.60;99.90
17236;DHT22;8734;59.272;17.780;2023-02-23T13:22:49;2.60;99.90
17236;DHT22;8734;59.272;17.780;2023-02-23T13:25:36;2.60;99.90
17236;DHT22;8734;59.272;17.780;2023-02-23T13:28:13;2.70;99.90
17236;DHT22;8734;59.272;17.780;2023-02-23T13:30:43;2.70;99.90
17236;DHT22;8734;59.272;17.780;2023-02-23T13:33:22;2.70;99.90
17236;DHT22;8734;59.272;17.780;2023-02-23T13:36:05;2.70;99.90
17236;DHT22;8734;59.272;17.780;2023-02-23T13:38:39;2.70;99.90
17236;DHT22;8734;59.272;17.780;2023-02-23T13:41:23;2.60;99.90
17236;DHT22;8734;59.272;17.780;2023-02-23T13:43:57;2.50;99.90
17236;DHT22;8734;59.272;17.780;2023-02-23T13:46:33;2.40;99.90
17236;DHT22;8734;59.272;17.780;2023-02-23T13:49:12;2.30;99.90
17236;DHT22;8734;59.272;17.780;2023-02-23T13:51:50;2.30;99.90
17236;DHT22;8734;59.272;17.780;2023-02-23T13:54:24;2.40;99.90
17236;DHT22;8734;59.272;17.780;2023-02-23T13:57:01;2.40;99.90
17236;DHT22;8734;59.272;17.780;2023-02-23T13:59:36;2.50;99.90
17236;DHT22;8734;59.272;17.780;2023-02-23T14:02:21;2.40;99.90
17236;DHT22;8734;59.272;17.780;2023-02-23T14:04:51;2.50;99.90
17236;DHT22;8734;59.272;17.780;2023-02-23T14:07:27;2.50;99.90
17236;DHT22;8734;59.272;17.780;2023-02-23T14:09:59;2.60;99.90
17236;DHT22;8734;59.272;17.780;2023-02-23T14:12:34;2.50;99.90
17236;DHT22;8734;59.272;17.780;2023-02-23T14:15:27;2.40;99.90
17236;DHT22;8734;59.272;17.780;2023-02-23T14:17:57;2.40;99.90
17236;DHT22;8734;59.272;17.780;2023-02-23T14:20:44;2.50;99.90
17236;DHT22;8734;59.272;17.780;2023-02-23T14:23:34;2.40;99.90
17236;DHT22;8734;59.272;17.780;2023-02-23T14:26:12;2.50;99.90
17236;DHT22;8734;59.272;17.780;2023-02-23T14:28:45;2.50;99.90
17236;DHT22;8734;59.272;17.780;2023-02-23T14:31:20;2.50;99.90
17236;DHT22;8734;59.272;17.780;2023-02-23T14:33:58;2.40;99.90
17236;DHT22;8734;59.272;17.780;2023-02-23T14:36:35;2.40;99.90
17236;DHT22;8734;59.272;17.780;2023-02-23T14:39:07;2.30;99.90
17236;DHT22;8734;59.272;17.780;2023-02-23T14:41:44;2.30;99.90
17236;DHT22;8734;59.272;17.780;2023-02-23T14:44:16;2.20;99.90
17236;DHT22;8734;59.272;17.780;2023-02-23T14:47:02;2.20;99.90
17236;DHT22;8734;59.272;17.780;2023-02-23T14:49:33;2.10;99.90
17236;DHT22;8734;59.272;17.780;2023-02-23T14:52:05;2.20;99.90
17236;DHT22;8734;59.272;17.780;2023-02-23T14:54:36;2.10;99.90
17236;DHT22;8734;59.272;17.780;2023-02-23T14:57:15;2.10;99.90
17236;DHT22;8734;59.272;17.780;2023-02-23T14:59:53;2.00;99.90
17236;DHT22;8734;59.272;17.780;2023-02-23T15:02:25;2.10;99.90
17236;DHT22;8734;59.272;17.780;2023-02-23T15:04:54;2.10;99.90
17236;DHT22;8734;59.272;17.780;2023-02-23T15:07:29;2.00;99.90
17236;DHT22;8734;59.272;17.780;2023-02-23T15:09:59;1.90;99.90
17236;DHT22;8734;59.272;17.780;2023-02-23T15:12:33;1.90;99.90
17236;DHT22;8734;59.272;17.780;2023-02-23T15:15:19;1.90;99.90
17236;DHT22;8734;59.272;17.780;2023-02-23T15:17:51;2.00;99.90
17236;DHT22;8734;59.272;17.780;2023-02-23T15:20:26;2.00;99.90
17236;DHT22;8734;59.272;17.780;2023-02-23T15:23:00;2.00;99.90
17236;DHT22;8734;59.272;17.780;2023-02-23T15:25:35;1.90;99.90
17236;DHT22;8734;59.272;17.780;2023-02-23T15:28:19;1.80;99.90
17236;DHT22;8734;59.272;17.780;2023-02-23T15:30:50;1.80;99.90
17236;DHT22;8734;59.272;17.780;2023-02-23T15:33:19;1.70;99.90
17236;DHT22;8734;59.272;17.780;2023-02-23T15:36:06;1.60;99.90
17236;DHT22;8734;59.272;17.780;2023-02-23T15:38:39;1.60;99.90
17236;DHT22;8734;59.272;17.780;2023-02-23T15:41:16;1.60;99.90
17236;DHT22;8734;59.272;17.780;2023-02-23T15:43:46;1.60;99.90
17236;DHT22;8734;59.272;17.780;2023-02-23T15:46:21;1.60;99.90
17236;DHT22;8734;59.272;17.780;2023-02-23T15:48:51;1.60;99.90
17236;DHT22;8734;59.272;17.780;2023-02-23T15:51:30;1.50;99.90
17236;DHT22;8734;59.272;17.780;2023-02-23T15:53:59;1.50;99.90
17236;DHT22;8734;59.272;17.780;2023-02-23T15:56:29;1.50;99.90
17236;DHT22;8734;59.272;17.780;2023-02-23T15:59:04;1.40;99.90
17236;DHT22;8734;59.272;17.780;2023-02-23T16:01:41;1.40;99.90
17236;DHT22;8734;59.272;17.780;2023-02-23T16:04:15;1.40;99.90
17236;DHT22;8734;59.272;17.780;2023-02-23T16:06:49;1.40;99.90
17236;DHT22;8734;59.272;17.780;2023-02-23T16:09:26;1.40;99.90
17236;DHT22;8734;59.272;17.780;2023-02-23T16:12:00;1.30;99.90
17236;DHT22;8734;59.272;17.780;2023-02-23T16:14:32;1.30;99.90
17236;DHT22;8734;59.272;17.780;2023-02-23T16:17:03;1.30;99.90
17236;DHT22;8734;59.272;17.780;2023-02-23T16:19:38;1.30;99.90
17236;DHT22;8734;59.272;17.780;2023-02-23T16:22:20;1.20;99.90
17236;DHT22;8734;59.272;17.780;2023-02-23T16:24:56;1.20;99.90
17236;DHT22;8734;59.272;17.780;2023-02-23T16:27:27;1.20;99.90
17236;DHT22;8734;59.272;17.780;2023-02-23T16:29:58;1.20;99.90
17236;DHT22;8734;59.272;17.780;2023-02-23T16:32:36;1.20;99.90
17236;DHT22;8734;59.272;17.780;2023-02-23T16:35:14;1.20;99.90
17236;DHT22;8734;59.272;17.780;2023-02-23T16:37:57;1.10;99.90
17236;DHT22;8734;59.272;17.780;2023-02-23T16:40:26;1.00;99.90
17236;DHT22;8734;59.272;17.780;2023-02-23T16:42:54;1.00;99.90